createdAt,value
2018-08-04T12:43:24.722Z,40.72
2018-08-04T12:44:24.694Z,41.32
2018-08-04T12:45:24.702Z,41.47
2018-08-04T12:46:24.696Z,41.47
2018-08-04T12:47:24.695Z,41.29
2018-08-04T12:48:24.628Z,41.28
2018-08-04T12:49:24.635Z,41.32
2018-08-04T12:50:24.697Z,41.93
2018-08-04T12:51:24.606Z,41.65
2018-08-04T12:52:24.594Z,41.20
2018-08-04T12:53:24.589Z,41.17
2018-08-04T12:54:24.584Z,41.31
2018-08-04T12:55:24.580Z,41.29
2018-08-04T12:56:24.614Z,40.39
2018-08-04T12:57:24.605Z,40.60
2018-08-04T12:58:24.586Z,40.75
2018-08-04T12:59:24.582Z,41.33
2018-08-04T13:00:24.583Z,41.93
2018-08-04T13:01:24.586Z,41.74
2018-08-04T13:02:24.603Z,40.76
2018-08-04T13:03:24.513Z,40.09
2018-08-04T13:04:24.505Z,40.00
2018-08-04T13:05:24.498Z,40.39
2018-08-04T13:06:24.496Z,39.87
2018-08-04T13:07:24.486Z,40.03
2018-08-04T13:08:24.504Z,39.92
2018-08-04T13:09:24.469Z,40.31
2018-08-04T13:10:24.469Z,40.36
2018-08-04T13:11:24.496Z,40.06
2018-08-04T13:12:24.469Z,39.47
2018-08-04T13:13:24.511Z,39.68
2018-08-04T13:14:24.470Z,40.33
2018-08-04T13:15:24.471Z,40.63
2018-08-04T13:16:24.475Z,40.73
2018-08-04T13:17:24.404Z,40.94
2018-08-04T13:18:24.475Z,41.25
2018-08-04T13:19:24.390Z,40.98
2018-08-04T13:20:24.380Z,41.13
2018-08-04T13:21:24.373Z,40.71
2018-08-04T13:22:24.386Z,40.39
2018-08-04T13:23:24.356Z,40.94
2018-08-04T13:24:24.391Z,41.36
2018-08-04T13:25:24.360Z,41.86
2018-08-04T13:26:24.357Z,42.34
2018-08-04T13:27:24.360Z,42.15
2018-08-04T13:28:24.358Z,41.97
2018-08-04T13:29:24.372Z,41.69
2018-08-04T13:30:24.367Z,41.65
2018-08-04T13:31:24.362Z,41.69
2018-08-04T13:32:24.287Z,41.47
2018-08-04T13:33:24.291Z,41.44
2018-08-04T13:34:24.276Z,41.48
2018-08-04T13:35:24.284Z,40.98
2018-08-04T13:36:24.374Z,40.64
2018-08-04T13:37:24.318Z,40.33
2018-08-04T13:38:24.243Z,40.91
2018-08-04T13:39:24.250Z,41.19
2018-08-04T13:40:24.243Z,41.53
2018-08-04T13:41:24.245Z,42.00
2018-08-04T13:42:24.279Z,42.27
2018-08-04T13:43:24.245Z,42.05
2018-08-04T13:44:24.245Z,41.16
2018-08-04T13:45:24.247Z,41.39
2018-08-04T13:46:24.178Z,41.69
2018-08-04T13:47:24.173Z,41.54
2018-08-04T13:48:24.178Z,40.83
2018-08-04T13:49:24.154Z,40.28
2018-08-04T13:50:24.207Z,40.56
2018-08-04T13:51:24.167Z,41.09
2018-08-04T13:52:24.138Z,41.67
2018-08-04T13:53:24.166Z,42.21
2018-08-04T13:54:24.131Z,41.95
2018-08-04T13:55:24.131Z,41.90
2018-08-04T13:56:24.168Z,41.77
2018-08-04T13:57:24.133Z,41.90
2018-08-04T13:58:24.136Z,42.02
2018-08-04T13:59:24.135Z,41.29
2018-08-04T14:00:24.074Z,41.07
2018-08-04T14:01:24.059Z,40.34
2018-08-04T14:02:24.135Z,39.81
2018-08-04T14:03:24.036Z,39.06
2018-08-04T14:04:24.033Z,38.50
2018-08-04T14:05:24.021Z,38.02
2018-08-04T14:06:24.021Z,37.60
2018-08-04T14:07:24.051Z,37.25
2018-08-04T14:08:24.026Z,37.04
2018-08-04T14:09:24.020Z,36.94
2018-08-04T14:10:24.022Z,36.82
2018-08-04T14:11:24.020Z,36.56
2018-08-04T14:12:24.027Z,36.30
2018-08-04T14:13:23.956Z,35.77
2018-08-04T14:14:23.934Z,35.13
2018-08-04T14:15:23.938Z,34.76
2018-08-04T14:16:23.934Z,34.67
2018-08-04T14:17:23.986Z,34.43
2018-08-04T14:18:23.936Z,34.34
2018-08-04T14:19:23.904Z,34.24
2018-08-04T14:20:23.913Z,34.15
2018-08-04T14:21:23.938Z,34.18
2018-08-04T14:22:23.910Z,34.12
2018-08-04T14:23:23.842Z,34.01
2018-08-04T14:24:23.870Z,34.05
2018-08-04T14:25:23.829Z,34.12
2018-08-04T14:26:23.816Z,34.16
2018-08-04T14:27:23.822Z,34.21
2018-08-04T14:28:23.952Z,34.05
2018-08-04T14:29:23.824Z,33.90
2018-08-04T14:30:23.790Z,33.89
2018-08-04T14:31:23.792Z,33.82
2018-08-04T14:32:23.791Z,33.94
2018-08-04T14:33:23.792Z,34.09
2018-08-04T14:34:23.802Z,34.05
2018-08-04T14:35:23.727Z,34.08
2018-08-04T14:36:23.715Z,34.08
2018-08-04T14:37:23.703Z,34.00
2018-08-04T14:38:23.694Z,34.03
2018-08-04T14:39:23.683Z,33.81
2018-08-04T14:40:23.706Z,33.81
2018-08-04T14:41:23.707Z,33.72
2018-08-04T14:42:23.680Z,33.78
2018-08-04T14:43:23.677Z,33.68
2018-08-04T14:44:23.677Z,33.62
2018-08-04T14:45:23.679Z,33.47
2018-08-04T14:46:23.612Z,33.41
2018-08-04T14:47:23.698Z,33.37
2018-08-04T14:48:23.613Z,33.24
2018-08-04T14:49:23.602Z,33.06
2018-08-04T14:50:23.591Z,33.15
2018-08-04T14:51:23.562Z,33.06
2018-08-04T14:52:23.562Z,32.96
2018-08-04T14:53:23.564Z,32.90
2018-08-04T14:54:23.598Z,32.77
2018-08-04T14:55:23.563Z,32.73
2018-08-04T14:56:23.565Z,32.66
2018-08-04T14:57:23.499Z,32.69
2018-08-04T14:58:23.570Z,32.72
2018-08-04T14:59:23.479Z,32.77
2018-08-04T15:00:23.470Z,32.72
2018-08-04T15:01:23.460Z,32.65
2018-08-04T15:02:23.455Z,32.61
2018-08-04T15:03:23.479Z,32.63
2018-08-04T15:04:23.448Z,32.83
2018-08-04T15:05:23.448Z,32.87
2018-08-04T15:06:23.449Z,32.88
2018-08-04T15:07:23.451Z,32.87
2018-08-04T15:08:23.391Z,32.85
2018-08-04T15:09:23.456Z,32.98
2018-08-04T15:10:23.367Z,32.85
2018-08-04T15:11:23.360Z,32.84
2018-08-04T15:12:23.363Z,32.91
2018-08-04T15:13:23.337Z,33.12
2018-08-04T15:14:23.370Z,33.11
2018-08-04T15:15:23.365Z,33.11
2018-08-04T15:16:23.367Z,33.09
2018-08-04T15:17:23.366Z,33.24
2018-08-04T15:18:23.340Z,33.20
2018-08-04T15:19:23.339Z,33.22
2018-08-04T15:20:23.266Z,33.18
2018-08-04T15:21:23.252Z,33.14
2018-08-04T15:22:23.246Z,33.07
2018-08-04T15:23:23.237Z,32.91
2018-08-04T15:24:23.227Z,32.91
2018-08-04T15:25:23.249Z,32.91
2018-08-04T15:26:23.221Z,32.91
2018-08-04T15:27:23.221Z,32.99
2018-08-04T15:28:23.222Z,32.90
2018-08-04T15:29:23.250Z,32.84
2018-08-04T15:30:23.220Z,32.72
2018-08-04T15:31:23.157Z,32.71
2018-08-04T15:32:23.144Z,32.66
2018-08-04T15:33:23.135Z,32.80
2018-08-04T15:34:23.123Z,32.91
2018-08-04T15:35:23.136Z,32.88
2018-08-04T15:36:23.106Z,32.78
2018-08-04T15:37:23.108Z,32.78
2018-08-04T15:38:23.153Z,32.72
2018-08-04T15:39:23.112Z,32.68
2018-08-04T15:40:23.113Z,32.65
2018-08-04T15:41:23.107Z,32.68
2018-08-04T15:42:23.042Z,32.54
2018-08-04T15:43:23.032Z,32.54
2018-08-04T15:44:23.049Z,32.59
2018-08-04T15:45:23.015Z,32.47
2018-08-04T15:46:23.024Z,32.40
2018-08-04T15:47:22.990Z,32.36
2018-08-04T15:48:22.993Z,32.32
2018-08-04T15:49:22.995Z,32.25
2018-08-04T15:50:22.991Z,32.17
2018-08-04T15:51:23.026Z,31.98
2018-08-04T15:52:22.992Z,31.95
2018-08-04T15:53:22.928Z,31.85
2018-08-04T15:54:22.919Z,31.84
2018-08-04T15:55:22.910Z,31.79
2018-08-04T15:56:22.911Z,31.84
2018-08-04T15:57:22.904Z,31.79
2018-08-04T15:58:22.876Z,31.85
2018-08-04T15:59:22.877Z,31.85
2018-08-04T16:00:22.877Z,31.88
2018-08-04T16:01:22.877Z,31.85
2018-08-04T16:02:22.885Z,31.85
2018-08-04T16:03:22.886Z,31.88
2018-08-04T16:04:22.812Z,31.75
2018-08-04T16:05:22.802Z,31.71
2018-08-04T16:06:22.792Z,31.74
2018-08-04T16:07:22.820Z,31.71
2018-08-04T16:08:22.771Z,31.54
2018-08-04T16:09:22.767Z,31.37
2018-08-04T16:10:22.767Z,31.40
2018-08-04T16:11:22.762Z,31.35
2018-08-04T16:12:22.765Z,31.25
2018-08-04T16:13:22.796Z,31.15
2018-08-04T16:14:22.763Z,31.18
2018-08-04T16:15:22.703Z,31.12
2018-08-04T16:16:22.688Z,31.05
2018-08-04T16:17:22.676Z,31.09
2018-08-04T16:18:22.665Z,31.09
2018-08-04T16:19:22.676Z,31.05
2018-08-04T16:20:22.648Z,31.05
2018-08-04T16:21:22.648Z,31.07
2018-08-04T16:22:22.650Z,31.03
2018-08-04T16:23:22.655Z,31.00
2018-08-04T16:24:22.743Z,30.97
2018-08-04T16:25:22.653Z,31.07
2018-08-04T16:26:22.583Z,31.10
2018-08-04T16:27:22.572Z,31.16
2018-08-04T16:28:22.597Z,31.10
2018-08-04T16:29:22.551Z,31.20
2018-08-04T16:30:22.562Z,31.20
2018-08-04T16:31:22.533Z,31.19
2018-08-04T16:32:22.533Z,31.35
2018-08-04T16:33:22.535Z,31.30
2018-08-04T16:34:22.536Z,31.23
2018-08-04T16:35:22.591Z,31.30
2018-08-04T16:36:22.535Z,31.40
2018-08-04T16:37:22.462Z,31.37
2018-08-04T16:38:22.454Z,31.35
2018-08-04T16:39:22.447Z,31.37
2018-08-04T16:40:22.433Z,31.27
2018-08-04T16:41:22.452Z,31.27
2018-08-04T16:42:22.419Z,31.20
2018-08-04T16:43:22.449Z,31.12
2018-08-04T16:44:22.419Z,31.04
2018-08-04T16:45:22.424Z,31.05
2018-08-04T16:46:22.421Z,31.00
2018-08-04T16:47:22.421Z,31.03
2018-08-04T16:48:22.349Z,30.91
2018-08-04T16:49:22.426Z,30.94
2018-08-04T16:50:22.328Z,30.98
2018-08-04T16:51:22.323Z,30.97
2018-08-04T16:52:22.305Z,30.94
2018-08-04T16:53:22.346Z,31.00
2018-08-04T16:54:22.304Z,30.90
2018-08-04T16:55:22.305Z,30.90
2018-08-04T16:56:22.305Z,30.98
2018-08-04T16:57:22.306Z,30.96
2018-08-04T16:58:22.307Z,31.01
2018-08-04T16:59:22.263Z,30.90
2018-08-04T17:00:22.230Z,30.90
2018-08-04T17:01:22.215Z,30.94
2018-08-04T17:02:22.210Z,30.91
2018-08-04T17:03:22.196Z,30.88
2018-08-04T17:04:22.220Z,30.78
2018-08-04T17:05:22.223Z,30.73
2018-08-04T17:06:22.192Z,30.72
2018-08-04T17:07:22.192Z,30.70
2018-08-04T17:08:22.192Z,30.61
2018-08-04T17:09:22.195Z,30.61
2018-08-04T17:10:22.203Z,30.64
2018-08-04T17:11:22.116Z,30.59
2018-08-04T17:12:22.165Z,30.53
2018-08-04T17:13:22.093Z,30.46
2018-08-04T17:14:22.100Z,30.48
2018-08-04T17:15:22.079Z,30.54
2018-08-04T17:16:22.262Z,30.46
2018-08-04T17:17:22.083Z,30.46
2018-08-04T17:18:22.113Z,30.32
2018-08-04T17:19:22.080Z,30.29
2018-08-04T17:20:22.091Z,30.26
2018-08-04T17:21:22.080Z,30.19
2018-08-04T17:22:22.001Z,30.15
2018-08-04T17:23:21.993Z,30.13
2018-08-04T17:24:21.980Z,30.10
2018-08-04T17:25:21.992Z,30.03
2018-08-04T17:26:21.961Z,30.01
2018-08-04T17:27:21.994Z,30.03
2018-08-04T17:28:21.963Z,30.00
2018-08-04T17:29:21.963Z,29.88
2018-08-04T17:30:21.963Z,29.89
2018-08-04T17:31:21.904Z,29.94
2018-08-04T17:32:21.893Z,29.88
2018-08-04T17:33:21.901Z,29.81
2018-08-04T17:34:21.873Z,29.84
2018-08-04T17:35:21.868Z,29.84
2018-08-04T17:36:21.893Z,29.92
2018-08-04T17:37:21.883Z,29.84
2018-08-04T17:38:21.848Z,29.88
2018-08-04T17:39:21.879Z,29.91
2018-08-04T17:40:21.848Z,29.88
2018-08-04T17:41:21.853Z,29.92
2018-08-04T17:42:21.879Z,29.76
2018-08-04T17:43:21.776Z,29.78
2018-08-04T17:44:21.830Z,29.71
2018-08-04T17:45:21.754Z,29.76
2018-08-04T17:46:21.745Z,29.64
2018-08-04T17:47:21.731Z,29.62
2018-08-04T17:48:21.761Z,29.58
2018-08-04T17:49:21.732Z,29.48
2018-08-04T17:50:21.737Z,29.48
2018-08-04T17:51:21.739Z,29.48
2018-08-04T17:52:21.737Z,29.44
2018-08-04T17:53:21.671Z,29.36
2018-08-04T17:54:21.739Z,29.25
2018-08-04T17:55:21.646Z,29.25
2018-08-04T17:56:21.638Z,29.23
2018-08-04T17:57:21.687Z,29.05
2018-08-04T17:58:21.619Z,29.08
2018-08-04T17:59:21.651Z,29.02
2018-08-04T18:00:21.619Z,29.03
2018-08-04T18:01:21.622Z,28.89
2018-08-04T18:02:21.622Z,28.88
2018-08-04T18:03:21.620Z,28.85
2018-08-04T18:04:21.571Z,28.85
2018-08-04T18:05:21.624Z,28.72
2018-08-04T18:06:21.534Z,28.82
2018-08-04T18:07:21.533Z,28.70
2018-08-04T18:08:21.512Z,28.72
2018-08-04T18:09:21.537Z,28.65
2018-08-04T18:10:21.504Z,28.60
2018-08-04T18:11:21.538Z,28.55
2018-08-04T18:12:21.506Z,28.52
2018-08-04T18:13:21.509Z,28.54
2018-08-04T18:14:21.538Z,28.51
2018-08-04T18:15:21.441Z,28.50
2018-08-04T18:16:21.426Z,28.48
2018-08-04T18:17:21.424Z,28.50
2018-08-04T18:18:21.408Z,28.35
2018-08-04T18:19:21.395Z,28.39
2018-08-04T18:20:21.428Z,28.24
2018-08-04T18:21:21.390Z,28.38
2018-08-04T18:22:21.391Z,28.36
2018-08-04T18:23:21.393Z,28.23
2018-08-04T18:24:21.391Z,28.21
2018-08-04T18:25:21.394Z,28.28
2018-08-04T18:26:21.319Z,28.30
2018-08-04T18:27:21.325Z,28.21
2018-08-04T18:28:21.300Z,28.17
2018-08-04T18:29:21.294Z,28.06
2018-08-04T18:30:21.280Z,28.05
2018-08-04T18:31:21.275Z,28.06
2018-08-04T18:32:21.308Z,27.95
2018-08-04T18:33:21.276Z,28.05
2018-08-04T18:34:21.279Z,27.98
2018-08-04T18:35:21.277Z,27.88
2018-08-04T18:36:21.212Z,27.91
2018-08-04T18:37:21.204Z,27.90
2018-08-04T18:38:21.211Z,27.83
2018-08-04T18:39:21.181Z,27.84
2018-08-04T18:40:21.175Z,27.77
2018-08-04T18:41:21.161Z,27.80
2018-08-04T18:42:21.163Z,27.69
2018-08-04T18:43:21.190Z,27.78
2018-08-04T18:44:21.165Z,27.69
2018-08-04T18:45:21.161Z,27.72
2018-08-04T18:46:21.163Z,27.66
2018-08-04T18:47:21.097Z,27.50
2018-08-04T18:48:21.086Z,27.55
2018-08-04T18:49:21.092Z,27.49
2018-08-04T18:50:21.063Z,27.43
2018-08-04T18:51:21.054Z,27.38
2018-08-04T18:52:21.046Z,27.35
2018-08-04T18:53:21.050Z,27.31
2018-08-04T18:54:21.081Z,27.38
2018-08-04T18:55:21.047Z,27.24
2018-08-04T18:56:21.062Z,27.25
2018-08-04T18:57:21.049Z,27.28
2018-08-04T18:58:20.981Z,27.18
2018-08-04T18:59:20.986Z,27.16
2018-08-04T19:00:20.974Z,27.13
2018-08-04T19:01:20.945Z,27.12
2018-08-04T19:02:20.940Z,27.08
2018-08-04T19:03:20.932Z,27.08
2018-08-04T19:04:20.957Z,27.03
2018-08-04T19:05:20.970Z,27.05
2018-08-04T19:06:20.942Z,26.94
2018-08-04T19:07:20.951Z,26.96
2018-08-04T19:08:20.935Z,26.91
2018-08-04T19:09:20.870Z,26.83
2018-08-04T19:10:20.909Z,26.86
2018-08-04T19:11:20.875Z,26.72
2018-08-04T19:12:20.830Z,26.75
2018-08-04T19:13:20.819Z,26.69
2018-08-04T19:14:20.822Z,26.71
2018-08-04T19:15:20.820Z,26.60
2018-08-04T19:16:20.903Z,26.64
2018-08-04T19:17:20.822Z,26.64
2018-08-04T19:18:20.820Z,26.59
2018-08-04T19:19:20.757Z,26.56
2018-08-04T19:20:20.750Z,26.56
2018-08-04T19:21:20.731Z,26.50
2018-08-04T19:22:20.765Z,26.49
2018-08-04T19:23:20.710Z,26.38
2018-08-04T19:24:20.702Z,26.46
2018-08-04T19:25:20.705Z,26.46
2018-08-04T19:26:20.704Z,26.34
2018-08-04T19:27:20.737Z,26.35
2018-08-04T19:28:20.782Z,26.34
2018-08-04T19:29:20.705Z,26.24
2018-08-04T19:30:20.640Z,26.23
2018-08-04T19:31:20.629Z,26.20
2018-08-04T19:32:20.616Z,26.13
2018-08-04T19:33:20.628Z,26.11
2018-08-04T19:34:20.599Z,26.08
2018-08-04T19:35:20.588Z,26.04
2018-08-04T19:36:20.662Z,26.01
2018-08-04T19:37:20.625Z,26.04
2018-08-04T19:38:20.590Z,25.97
2018-08-04T19:39:20.593Z,26.03
2018-08-04T19:40:20.591Z,25.97
2018-08-04T19:41:20.527Z,25.96
2018-08-04T19:42:20.507Z,25.93
2018-08-04T19:43:20.521Z,25.82
2018-08-04T19:44:20.492Z,25.79
2018-08-04T19:45:20.505Z,25.82
2018-08-04T19:46:20.474Z,25.74
2018-08-04T19:47:20.477Z,25.76
2018-08-04T19:48:20.509Z,25.66
2018-08-04T19:49:20.477Z,25.76
2018-08-04T19:50:20.512Z,25.71
2018-08-04T19:51:20.415Z,25.69
2018-08-04T19:52:20.407Z,25.67
2018-08-04T19:53:20.417Z,25.67
2018-08-04T19:54:20.380Z,25.69
2018-08-04T19:55:20.376Z,25.60
2018-08-04T19:56:20.381Z,25.53
2018-08-04T19:57:20.361Z,25.56
2018-08-04T19:58:20.360Z,25.53
2018-08-04T19:59:20.392Z,25.45
2018-08-04T20:00:20.362Z,25.41
2018-08-04T20:01:20.364Z,25.46
2018-08-04T20:02:20.295Z,25.42
2018-08-04T20:03:20.289Z,25.34
2018-08-04T20:04:20.278Z,25.35
2018-08-04T20:05:20.289Z,25.35
2018-08-04T20:06:20.249Z,25.34
2018-08-04T20:07:20.247Z,25.26
2018-08-04T20:08:20.246Z,25.34
2018-08-04T20:09:20.251Z,25.26
2018-08-04T20:10:20.247Z,25.27
2018-08-04T20:11:20.250Z,25.23
2018-08-04T20:12:20.249Z,25.14
2018-08-04T20:13:20.174Z,25.14
2018-08-04T20:14:20.168Z,25.11
2018-08-04T20:15:20.154Z,25.14
2018-08-04T20:16:20.169Z,25.14
2018-08-04T20:17:20.163Z,25.02
2018-08-04T20:18:20.130Z,25.01
2018-08-04T20:19:20.136Z,25.02
2018-08-04T20:20:20.132Z,24.90
2018-08-04T20:21:20.133Z,24.90
2018-08-04T20:22:20.137Z,24.89
2018-08-04T20:23:20.068Z,24.90
2018-08-04T20:24:20.056Z,24.97
2018-08-04T20:25:20.049Z,24.93
2018-08-04T20:26:20.031Z,24.92
2018-08-04T20:27:20.024Z,24.94
2018-08-04T20:28:20.047Z,24.83
2018-08-04T20:29:20.081Z,24.97
2018-08-04T20:30:20.018Z,24.90
2018-08-04T20:31:20.019Z,24.84
2018-08-04T20:32:20.018Z,24.87
2018-08-04T20:33:20.050Z,24.77
2018-08-04T20:34:19.947Z,24.79
2018-08-04T20:35:19.936Z,24.79
2018-08-04T20:36:19.962Z,24.79
2018-08-04T20:37:19.915Z,24.64
2018-08-04T20:38:19.902Z,24.67
2018-08-04T20:39:19.936Z,24.68
2018-08-04T20:40:19.902Z,24.70
2018-08-04T20:41:19.907Z,24.60
2018-08-04T20:42:19.907Z,24.60
2018-08-04T20:43:19.905Z,24.53
2018-08-04T20:44:19.906Z,24.46
2018-08-04T20:45:19.830Z,24.46
2018-08-04T20:46:19.815Z,24.49
2018-08-04T20:47:19.805Z,24.44
2018-08-04T20:48:19.799Z,24.46
2018-08-04T20:49:19.788Z,24.44
2018-08-04T20:50:19.823Z,24.48
2018-08-04T20:51:19.790Z,24.41
2018-08-04T20:52:19.790Z,24.48
2018-08-04T20:53:19.789Z,24.41
2018-08-04T20:54:19.793Z,24.39
2018-08-04T20:55:19.722Z,24.42
2018-08-04T20:56:19.809Z,24.39
2018-08-04T20:57:19.700Z,24.39
2018-08-04T20:58:19.706Z,24.31
2018-08-04T20:59:19.706Z,24.30
2018-08-04T21:00:19.677Z,24.29
2018-08-04T21:01:19.703Z,24.19
2018-08-04T21:02:19.691Z,24.26
2018-08-04T21:03:19.676Z,24.26
2018-08-04T21:04:19.677Z,24.19
2018-08-04T21:05:19.614Z,24.18
2018-08-04T21:06:19.702Z,24.16
2018-08-04T21:07:19.594Z,24.06
2018-08-04T21:08:19.588Z,24.09
2018-08-04T21:09:19.601Z,24.12
2018-08-04T21:10:19.560Z,24.04
2018-08-04T21:11:19.559Z,24.09
2018-08-04T21:12:19.615Z,24.05
2018-08-04T21:13:19.560Z,23.97
2018-08-04T21:14:19.561Z,23.94
2018-08-04T21:15:19.565Z,23.97
2018-08-04T21:16:19.501Z,23.89
2018-08-04T21:17:19.490Z,23.97
2018-08-04T21:18:19.562Z,23.89
2018-08-04T21:19:19.465Z,23.87
2018-08-04T21:20:19.454Z,23.86
2018-08-04T21:21:19.477Z,23.89
2018-08-04T21:22:19.448Z,23.87
2018-08-04T21:23:19.449Z,23.82
2018-08-04T21:24:19.447Z,23.84
2018-08-04T21:25:19.446Z,23.81
2018-08-04T21:26:19.447Z,23.78
2018-08-04T21:27:19.448Z,23.77
2018-08-04T21:28:19.387Z,23.78
2018-08-04T21:29:19.360Z,23.77
2018-08-04T21:30:19.347Z,23.74
2018-08-04T21:31:19.336Z,23.75
2018-08-04T21:32:19.330Z,23.75
2018-08-04T21:33:19.363Z,23.69
2018-08-04T21:34:19.336Z,23.71
2018-08-04T21:35:19.332Z,23.60
2018-08-04T21:36:19.337Z,23.62
2018-08-04T21:37:19.272Z,23.68
2018-08-04T21:38:19.262Z,23.54
2018-08-04T21:39:19.272Z,23.56
2018-08-04T21:40:19.238Z,23.62
2018-08-04T21:41:19.229Z,23.50
2018-08-04T21:42:19.218Z,23.42
2018-08-04T21:43:19.217Z,23.56
2018-08-04T21:44:19.273Z,23.41
2018-08-04T21:45:19.247Z,23.47
2018-08-04T21:46:19.218Z,23.34
2018-08-04T21:47:19.218Z,23.35
2018-08-04T21:48:19.221Z,23.35
2018-08-04T21:49:19.199Z,23.34
2018-08-04T21:50:19.151Z,23.25
2018-08-04T21:51:19.133Z,23.22
2018-08-04T21:52:19.153Z,23.23
2018-08-04T21:53:19.105Z,23.16
2018-08-04T21:54:19.916Z,23.14
2018-08-04T21:55:19.103Z,23.06
2018-08-04T21:56:19.134Z,23.07
2018-08-04T21:57:19.103Z,23.11
2018-08-04T21:58:19.043Z,23.03
2018-08-04T21:59:19.030Z,22.99
2018-08-04T22:00:19.106Z,22.99
2018-08-04T22:01:19.046Z,22.89
2018-08-04T22:02:19.001Z,22.89
2018-08-04T22:03:19.012Z,22.93
2018-08-04T22:04:19.009Z,22.93
2018-08-04T22:05:18.988Z,22.86
2018-08-04T22:06:19.031Z,22.89
2018-08-04T22:07:18.989Z,22.84
2018-08-04T22:08:18.992Z,22.75
2018-08-04T22:09:18.928Z,22.79
2018-08-04T22:10:18.913Z,22.72
2018-08-04T22:11:18.908Z,22.74
2018-08-04T22:12:18.992Z,22.72
2018-08-04T22:13:18.955Z,22.69
2018-08-04T22:14:18.875Z,22.63
2018-08-04T22:15:18.877Z,22.63
2018-08-04T22:16:18.907Z,22.61
2018-08-04T22:17:18.878Z,22.60
2018-08-04T22:18:18.910Z,22.48
2018-08-04T22:19:18.893Z,22.57
2018-08-04T22:20:18.804Z,22.54
2018-08-04T22:21:18.792Z,22.46
2018-08-04T22:22:18.783Z,22.45
2018-08-04T22:23:18.773Z,22.45
2018-08-04T22:24:18.788Z,22.44
2018-08-04T22:25:18.793Z,22.36
2018-08-04T22:26:18.770Z,22.42
2018-08-04T22:27:18.760Z,22.33
2018-08-04T22:28:18.760Z,22.33
2018-08-04T22:29:18.761Z,22.33
2018-08-04T22:30:18.700Z,22.27
2018-08-04T22:31:18.762Z,22.29
2018-08-04T22:32:18.697Z,22.26
2018-08-04T22:33:18.741Z,22.20
2018-08-04T22:34:18.652Z,22.21
2018-08-04T22:35:18.647Z,22.20
2018-08-04T22:36:18.646Z,22.11
2018-08-04T22:37:18.648Z,22.12
2018-08-04T22:38:18.646Z,22.14
2018-08-04T22:39:18.647Z,22.15
2018-08-04T22:40:18.647Z,22.20
2018-08-04T22:41:18.593Z,22.11
2018-08-04T22:42:18.569Z,22.14
2018-08-04T22:43:18.556Z,22.14
2018-08-04T22:44:18.565Z,22.17
2018-08-04T22:45:18.536Z,22.14
2018-08-04T22:46:18.531Z,22.05
2018-08-04T22:47:18.530Z,22.02
2018-08-04T22:48:18.533Z,22.05
2018-08-04T22:49:18.564Z,22.05
2018-08-04T22:50:18.534Z,22.04
2018-08-04T22:51:18.535Z,21.96
2018-08-04T22:52:18.460Z,21.90
2018-08-04T22:53:18.446Z,21.96
2018-08-04T22:54:18.438Z,21.93
2018-08-04T22:55:18.429Z,21.91
2018-08-04T22:56:18.417Z,21.89
2018-08-04T22:57:18.452Z,21.90
2018-08-04T22:58:18.451Z,21.85
2018-08-04T22:59:18.418Z,21.79
2018-08-04T23:00:18.449Z,21.75
2018-08-04T23:01:18.419Z,21.74
2018-08-04T23:02:18.348Z,21.79
2018-08-04T23:03:18.420Z,21.66
2018-08-04T23:04:18.330Z,21.70
2018-08-04T23:05:18.319Z,21.71
2018-08-04T23:06:18.305Z,21.68
2018-08-04T23:07:18.301Z,21.68
2018-08-04T23:08:18.304Z,21.70
2018-08-04T23:09:18.334Z,21.67
2018-08-04T23:10:18.304Z,21.66
2018-08-04T23:11:18.306Z,21.66
2018-08-04T23:12:18.315Z,21.53
2018-08-04T23:13:18.233Z,21.45
2018-08-04T23:14:18.306Z,21.56
2018-08-04T23:15:18.211Z,21.46
2018-08-04T23:16:18.209Z,21.49
2018-08-04T23:17:18.187Z,21.49
2018-08-04T23:18:18.187Z,21.45
2018-08-04T23:19:18.192Z,21.48
2018-08-04T23:20:18.223Z,21.51
2018-08-04T23:21:18.222Z,21.45
2018-08-04T23:22:18.224Z,21.49
2018-08-04T23:23:18.121Z,21.45
2018-08-04T23:24:18.112Z,21.53
2018-08-04T23:25:18.124Z,21.49
2018-08-04T23:26:18.093Z,21.37
2018-08-04T23:27:18.105Z,21.46
2018-08-04T23:28:18.108Z,21.33
2018-08-04T23:29:18.072Z,21.42
2018-08-04T23:30:18.073Z,21.38
2018-08-04T23:31:18.075Z,21.43
2018-08-04T23:32:18.074Z,21.43
2018-08-04T23:33:18.014Z,21.38
2018-08-04T23:34:18.077Z,21.38
2018-08-04T23:35:17.996Z,21.38
2018-08-04T23:36:17.982Z,21.37
2018-08-04T23:37:17.972Z,21.37
2018-08-04T23:38:18.095Z,21.28
2018-08-04T23:39:17.959Z,21.34
2018-08-04T23:40:17.958Z,21.36
2018-08-04T23:41:17.998Z,21.37
2018-08-04T23:42:17.960Z,21.30
2018-08-04T23:43:17.961Z,21.37
2018-08-04T23:44:17.895Z,21.45
2018-08-04T23:45:17.882Z,21.38
2018-08-04T23:46:17.899Z,21.37
2018-08-04T23:47:17.862Z,21.48
2018-08-04T23:48:17.852Z,21.33
2018-08-04T23:49:18.387Z,21.49
2018-08-04T23:50:17.917Z,21.48
2018-08-04T23:51:17.851Z,21.46
2018-08-04T23:52:17.875Z,21.37
2018-08-04T23:53:17.846Z,21.36
2018-08-04T23:54:17.846Z,21.48
2018-08-04T23:55:17.847Z,21.34
2018-08-04T23:56:17.766Z,21.45
2018-08-04T23:57:17.751Z,21.42
2018-08-04T23:58:17.742Z,21.40
2018-08-04T23:59:17.730Z,21.40
